This is the latest recevied weather packets stored in our database for station/object K7YVO. If no packets are shown the sender has not sent any weather packets the latest 10 day(s).
| Time | Temp. | Humidity | Pressure | Rain* | Wind** | Luminosity | Snow |
|---|---|---|---|---|---|---|---|
| 1777541666 | 11.11° C | 61% | 1021.2 hPa | 0 mm | - | 0 W/m² | - |
| 1777541363 | 11.11° C | 62% | 1021.3 hPa | 0 mm | - | 0 W/m² | - |
| 1777541058 | 11.67° C | 61% | 1021.4 hPa | 0 mm | - | 0 W/m² | - |
| 1777540756 | 11.67° C | 61% | 1021.4 hPa | 0 mm | - | 0 W/m² | - |
| 1777540454 | 11.67° C | 60% | 1021.5 hPa | 0 mm | - | 0 W/m² | - |
| 1777539840 | 11.67° C | 60% | 1021.6 hPa | 0 mm | - | 0 W/m² | - |
| 1777539536 | 11.67° C | 60% | 1021.7 hPa | 0 mm | - | 0 W/m² | - |
| 1777539233 | 11.67° C | 60% | 1021.6 hPa | 0 mm | - | 0 W/m² | - |
| 1777537104 | 11.67° C | 61% | 1021.9 hPa | 0 mm | - | 0 W/m² | - |
| 1777536801 | 11.67° C | 61% | 1021.9 hPa | 0 mm | - | 0 W/m² | - |
| 1777536498 | 11.67° C | 62% | 1021.9 hPa | 0 mm | - | 0 W/m² | - |
| 1777536194 | 11.67° C | 62% | 1021.8 hPa | 0 mm | - | 0 W/m² | - |
| 1777534981 | 12.78° C | 59% | 1021.9 hPa | 0 mm | - | 0 W/m² | - |
| 1777534677 | 12.78° C | 59% | 1021.9 hPa | 0 mm | - | 0 W/m² | - |
| 1777534375 | 12.78° C | 59% | 1022 hPa | 0 mm | - | 0 W/m² | - |
| 1777534072 | 12.78° C | 59% | 1022 hPa | 0 mm | - | 0 W/m² | - |
| 1777533769 | 12.78° C | 59% | 1022.1 hPa | 0 mm | - | 0 W/m² | - |
| 1777533465 | 12.78° C | 59% | 1022 hPa | 0 mm | - | 0 W/m² | - |
| 1777533161 | 12.22° C | 62% | 1022.1 hPa | 0 mm | - | 0 W/m² | - |
| 1777532859 | 11.67° C | 66% | 1022.1 hPa | 0 mm | - | 0 W/m² | - |
| 1777532555 | 11.67° C | 67% | 1022.1 hPa | 0 mm | - | 0 W/m² | - |
| 1777532252 | 12.22° C | 67% | 1022 hPa | 0 mm | - | 0 W/m² | - |
| 1777531949 | 12.78° C | 64% | 1022 hPa | 0 mm | - | 0 W/m² | - |
| 1777531645 | 12.78° C | 64% | 1022.1 hPa | 0 mm | - | 0 W/m² | - |
| 1777531040 | 13.33° C | 60% | 1022 hPa | 0 mm | - | 0 W/m² | - |
* Rain latest hour (hover to see other rain measurements)
** Current wind speed in m/s (hover to see current wind gust speed)